メインページ
METAR-TAF:

METAR-TAF

空港 :

ベイルート, レバノン

緯度: 33-49N, 経度: 035-29E, 海抜: 29m

現時点の気象観測

当レポートは53分前の22:00(UTC)に作成
東/南東の風 4kt
気温 16°C
湿度 51%
気圧 1020 hPa
視程10km以上
1,500メートル以下は雲なし、積乱雲なし

METAR: OLBA 152200Z 11004KT CAVOK 16/06 Q1020 NOSIG

時間: 00:53 (22:53 UTC)

予報

当レポートは6時間53分前の16:00(UTC)に作成
予報は15日の 18時(UTC)から 16日の 24時(UTC)まで有効
変向風 3kt
視程: 8000m
高度10000ftの雲はほとんどない
高度20000ftの雲はほとんどない
16日の 09時(UTC)から 16日の 12時(UTC)まで徐々に
北/北西の風 10kt、最大20ktの突風を伴う
高度2400ftの雲は散在している
高度20000ftの雲は散在している
16日の 12時(UTC)から 16日の 24時(UTC)まで一時的に
視程: 5000m
小雨
16日の 21時(UTC)から 16日の 24時(UTC)まで徐々に
変向風 3kt

TAF: OLBA 151600Z 1518/1624 VRB03KT 8000 FEW100 FEW200 BECMG 1609/1612 33010G20KT SCT024 SCT200 TEMPO 1612/1624 5000 -RA BECMG 1621/1624 VRB03KT

4,000以上の空港の気象観測と天気予報(METAR報とTAF報)

利用可能な観測所は地図上に黄色い丸と赤い丸で示す。

丸の上にカーソルを重ねると観測所名を参照できる。

次にクリックすると気象観測と天気予報を参照できる。

マップの切り替え:黒色「×」印の緑ボタンをクリックして拡大、「-」印の緑ボタンをクリックして縮小、緑色の三角印をクリックして隣りの地図に切り替え


METAR-TAF: